Athens, Greece

6:26 PM EET on January 26, 2015 (GMT +0200)
SV1GST - SOURMENA HELLINIKO | Change Station
CLOSE
Current Station
Personal Weather Station
Location: Athina, Attiki
Elevation: 300 ft
Nearby Weather Stations
Active Advisory: Thunderstorms

Elev 300 ft 37.89 °N, 23.75 °E | Updated 3 seconds ago

Thunderstorm
Thunderstorm
53.0 °F
Feels Like 53.0 °F
N
1.0
Wind Variable Wind from NE
Gusts 10.0 mph

Today
High -- | Low -- °F
--% Chance of Precip.
Yesterday
High -- | Low -- °F
Precip. -- in
7:34 AM 5:41 PM
Waxing Crescent, 44% visible
Pressure 30.01 in
Visibility 6.2 miles
Clouds Scattered Clouds 2000 ft
Mostly Cloudy 2500 ft
Mostly Cloudy 8000 ft
Dew Point 50 °F
Humidity 88%
Rainfall 0.05 in
Snow Depth Not available.
UV 0 out of 12
Pollen Not available.
Air Quality Not available.
Flu Activity Not available.
METAR LGAV 261550Z 10007KT 9999 TS SCT020CB BKN025 BKN080 13/09 Q1016 NOSIG BECMG TSRA

More Conditions Fewer Conditions

Pressure 30.01 in
Visibility 6.2 miles
Clouds Scattered Clouds 2000 ft
Mostly Cloudy 2500 ft
Mostly Cloudy 8000 ft
Dew Point 50 °F
Humidity 88%
Rainfall 0.05 in
Snow Depth Not available.
UV 0 out of 12
Pollen Not available.
Air Quality Not available.
Flu Activity Not available.
METAR LGAV 261550Z 10007KT 9999 TS SCT020CB BKN025 BKN080 13/09 Q1016 NOSIG BECMG TSRA

More Conditions Fewer Conditions

10-Day Weather Forecast

Almanac

Astronomy

Jan. 26, 2015 Rise Set
Actual Time
Civil Twilight
Nautical Twilight
Astronomical Twilight
Moon
Length of Visible Light
Length of Day
Tomorrow will be .
, % of the Moon is Illuminated

Today's Extremes

Country Highs Country Lows

Community

WunderPhotos

Upload Photos

1,790,272 photos uploaded!

WunderBlogs® & News

Nearby

Air Quality

  Air Quality AQ Index Pollutant
Not available.

Snow Depth

Station Depth Elevation

Earthquake Activity

City Distance Mag. Time & Date
Minimum magnitude displayed is 2.5.

Coastal Water Temperatures

Place Temperature

Nearby Weather Stations